createdAt,value
2023-03-26T00:01:26.746Z,13.48
2023-03-26T00:03:58.631Z,13.49
2023-03-26T00:06:29.042Z,13.43
2023-03-26T00:08:57.679Z,13.36
2023-03-26T00:11:27.932Z,13.40
2023-03-26T00:13:58.921Z,13.36
2023-03-26T00:16:31.527Z,13.30
2023-03-26T00:19:00.157Z,13.29
2023-03-26T00:21:29.276Z,13.32
2023-03-26T00:24:04.666Z,13.30
2023-03-26T00:26:34.138Z,13.32
2023-03-26T00:29:03.503Z,13.32
2023-03-26T00:31:31.324Z,13.26
2023-03-26T00:33:58.586Z,13.24
2023-03-26T00:36:27.023Z,13.26
2023-03-26T00:38:54.969Z,13.24
2023-03-26T00:41:26.438Z,13.24
2023-03-26T00:43:58.730Z,13.14
2023-03-26T00:46:27.287Z,13.22
2023-03-26T00:48:54.353Z,13.25
2023-03-26T00:51:22.114Z,13.27
2023-03-26T00:53:50.783Z,13.23
2023-03-26T00:56:19.187Z,13.24
2023-03-26T00:58:48.029Z,13.25
2023-03-26T01:01:18.992Z,13.21
2023-03-26T01:04:00.917Z,13.17
2023-03-26T01:06:36.500Z,13.26
2023-03-26T01:09:19.071Z,13.22
2023-03-26T01:11:48.305Z,13.28
2023-03-26T01:14:18.895Z,13.24
2023-03-26T01:16:55.188Z,13.20
2023-03-26T01:19:29.809Z,13.29
2023-03-26T01:21:59.038Z,13.15
2023-03-26T01:24:26.251Z,13.03
2023-03-26T01:26:58.858Z,12.98
2023-03-26T01:29:34.557Z,13.12
2023-03-26T01:32:20.743Z,13.03
2023-03-26T01:35:21.560Z,12.93
2023-03-26T01:38:11.155Z,12.81
2023-03-26T01:40:50.608Z,12.79
2023-03-26T01:43:39.652Z,12.75
2023-03-26T01:46:09.484Z,12.71
2023-03-26T01:48:44.158Z,12.67
2023-03-26T01:51:13.001Z,12.69
2023-03-26T01:53:46.344Z,12.66
2023-03-26T01:56:36.567Z,12.58
2023-03-26T01:59:18.533Z,12.54
2023-03-26T02:02:11.379Z,12.50
2023-03-26T02:05:00.377Z,12.47
2023-03-26T02:07:42.074Z,12.31
2023-03-26T02:10:16.467Z,12.36
2023-03-26T02:12:45.517Z,12.39
2023-03-26T02:15:13.042Z,12.37
2023-03-26T02:17:40.564Z,12.33
2023-03-26T02:20:14.101Z,12.38
2023-03-26T02:22:46.090Z,12.35
2023-03-26T02:25:19.033Z,12.33
2023-03-26T02:27:50.408Z,12.38
2023-03-26T02:30:25.782Z,12.31
2023-03-26T02:32:59.328Z,12.28
2023-03-26T02:35:32.935Z,12.31
2023-03-26T02:38:02.130Z,12.31
2023-03-26T02:40:29.011Z,12.27
2023-03-26T02:42:56.560Z,12.20
2023-03-26T02:45:24.412Z,12.25
2023-03-26T02:48:18.152Z,12.19
2023-03-26T02:51:02.968Z,12.17
2023-03-26T02:53:32.550Z,12.20
2023-03-26T02:56:18.664Z,12.15
2023-03-26T02:58:59.346Z,12.01
2023-03-26T03:01:26.616Z,12.13
2023-03-26T03:03:55.042Z,12.13
2023-03-26T03:06:34.724Z,11.92
2023-03-26T03:09:02.881Z,12.00
2023-03-26T03:11:36.548Z,12.02
2023-03-26T03:14:05.004Z,11.98
2023-03-26T03:16:33.500Z,12.00
2023-03-26T03:19:06.376Z,11.99
2023-03-26T03:21:37.994Z,11.93
2023-03-26T03:24:05.979Z,11.98
2023-03-26T03:26:36.511Z,12.07
2023-03-26T03:29:32.158Z,11.95
2023-03-26T03:32:12.671Z,12.01
2023-03-26T03:34:45.117Z,12.03
2023-03-26T03:37:12.194Z,11.98
2023-03-26T03:39:45.412Z,12.03
2023-03-26T03:42:16.929Z,12.03
2023-03-26T03:44:44.768Z,11.95
2023-03-26T03:47:31.641Z,11.96
2023-03-26T03:50:00.325Z,11.92
2023-03-26T03:52:28.244Z,11.88
2023-03-26T03:54:57.875Z,11.95
2023-03-26T03:57:39.291Z,11.86
2023-03-26T04:00:12.057Z,11.86
2023-03-26T04:02:56.368Z,11.91
2023-03-26T04:05:26.609Z,11.95
2023-03-26T04:07:53.808Z,11.94
2023-03-26T04:10:38.791Z,11.95
2023-03-26T04:13:12.862Z,11.90
2023-03-26T04:15:56.182Z,11.88
2023-03-26T04:18:23.811Z,11.87
2023-03-26T04:20:51.040Z,11.89
2023-03-26T04:23:26.748Z,11.75
2023-03-26T04:26:05.575Z,11.81
2023-03-26T04:29:12.860Z,11.86
2023-03-26T04:31:40.110Z,11.71
2023-03-26T04:34:23.550Z,11.74
2023-03-26T04:37:06.718Z,11.67
2023-03-26T04:39:42.273Z,11.59
2023-03-26T04:42:47.154Z,11.63
2023-03-26T04:45:31.996Z,11.61
2023-03-26T04:47:59.456Z,11.68
2023-03-26T04:50:27.192Z,11.63
2023-03-26T04:52:59.650Z,11.67
2023-03-26T04:56:11.912Z,11.55
2023-03-26T04:59:15.776Z,11.43
2023-03-26T05:01:46.160Z,11.38
2023-03-26T05:04:15.577Z,11.47
2023-03-26T05:06:43.164Z,11.44
2023-03-26T05:09:23.404Z,11.39
2023-03-26T05:12:23.041Z,11.47
2023-03-26T05:15:12.073Z,11.35
2023-03-26T05:18:01.847Z,11.38
2023-03-26T05:20:37.265Z,11.35
2023-03-26T05:23:08.104Z,11.42
2023-03-26T05:25:37.748Z,11.50
2023-03-26T05:28:11.904Z,11.44
2023-03-26T05:30:48.072Z,11.45
2023-03-26T05:33:16.533Z,11.39
2023-03-26T05:36:01.335Z,11.42
2023-03-26T05:38:31.224Z,11.35
2023-03-26T05:41:00.235Z,11.27
2023-03-26T05:43:27.978Z,11.31
2023-03-26T05:46:17.320Z,11.23
2023-03-26T05:48:51.590Z,11.35
2023-03-26T05:51:20.661Z,11.46
2023-03-26T05:53:57.003Z,11.40
2023-03-26T05:56:42.809Z,11.40
2023-03-26T05:59:28.320Z,11.61
2023-03-26T06:01:58.396Z,11.59
2023-03-26T06:04:46.250Z,11.65
2023-03-26T06:07:34.001Z,11.76
2023-03-26T06:10:10.130Z,11.71
2023-03-26T06:12:37.438Z,11.65
2023-03-26T06:15:05.794Z,11.82
2023-03-26T06:17:58.669Z,11.85
2023-03-26T06:20:52.399Z,12.05
2023-03-26T06:23:31.269Z,12.12
2023-03-26T06:26:17.222Z,12.30
2023-03-26T06:28:55.307Z,12.44
2023-03-26T06:31:34.897Z,12.41
2023-03-26T06:34:24.085Z,12.42
2023-03-26T06:36:53.001Z,12.47
2023-03-26T06:39:21.659Z,12.59
2023-03-26T06:42:06.720Z,12.73
2023-03-26T06:44:59.814Z,12.64
2023-03-26T06:47:50.552Z,12.68
2023-03-26T06:50:47.345Z,12.72
2023-03-26T06:53:43.234Z,12.59
2023-03-26T06:56:25.140Z,12.75
2023-03-26T06:59:02.453Z,12.93
2023-03-26T07:01:48.817Z,13.15
2023-03-26T07:04:34.840Z,13.23
2023-03-26T07:07:21.991Z,13.01
2023-03-26T07:10:08.122Z,12.80
2023-03-26T07:12:54.072Z,12.90
2023-03-26T07:15:36.358Z,12.93
2023-03-26T07:18:26.548Z,13.00
2023-03-26T07:20:54.271Z,13.02
2023-03-26T07:23:23.186Z,13.11
2023-03-26T07:25:57.739Z,12.98
2023-03-26T07:28:41.469Z,13.10
2023-03-26T07:31:38.231Z,13.07
2023-03-26T07:35:03.004Z,13.39
2023-03-26T07:38:23.780Z,13.22
2023-03-26T07:41:20.264Z,13.58
2023-03-26T07:44:43.361Z,13.62
2023-03-26T07:47:36.788Z,13.33
2023-03-26T07:50:27.301Z,13.43
2023-03-26T07:53:15.078Z,13.26
2023-03-26T07:56:06.336Z,13.31
2023-03-26T07:59:04.365Z,13.51
2023-03-26T08:02:00.599Z,13.46
2023-03-26T08:04:54.278Z,13.41
2023-03-26T08:07:59.014Z,13.19
2023-03-26T08:10:38.631Z,13.36
2023-03-26T08:13:27.894Z,13.54
2023-03-26T08:16:17.129Z,13.63
2023-03-26T08:18:47.480Z,13.80
2023-03-26T08:21:20.739Z,13.49
2023-03-26T08:24:18.853Z,13.61
2023-03-26T08:26:57.824Z,13.87
2023-03-26T08:29:50.145Z,14.15
2023-03-26T08:32:19.292Z,14.13
2023-03-26T08:34:46.546Z,14.34
2023-03-26T08:37:13.961Z,14.17
2023-03-26T08:39:42.603Z,14.32
2023-03-26T08:42:18.387Z,14.29
2023-03-26T08:45:53.442Z,14.53
2023-03-26T08:48:20.284Z,14.62
2023-03-26T08:51:13.107Z,14.68
2023-03-26T08:54:08.429Z,14.64
2023-03-26T08:57:01.653Z,14.68
2023-03-26T08:59:34.589Z,14.67
2023-03-26T09:02:49.173Z,14.81
2023-03-26T09:05:43.522Z,14.85
2023-03-26T09:08:54.292Z,14.96
2023-03-26T09:11:44.932Z,14.78
2023-03-26T09:14:36.985Z,14.81
2023-03-26T09:17:35.043Z,15.13
2023-03-26T09:20:09.065Z,15.13
2023-03-26T09:22:53.286Z,15.21
2023-03-26T09:25:53.530Z,15.11
2023-03-26T09:28:36.774Z,15.40
2023-03-26T09:31:28.513Z,15.68
2023-03-26T09:34:00.584Z,15.69
2023-03-26T09:36:53.129Z,15.73
2023-03-26T09:39:43.004Z,15.85
2023-03-26T09:42:23.383Z,15.85
2023-03-26T09:45:09.227Z,15.90
2023-03-26T09:47:53.853Z,15.78
2023-03-26T09:50:42.608Z,15.93
2023-03-26T09:53:38.638Z,16.01
2023-03-26T09:56:42.480Z,15.98
2023-03-26T09:59:24.760Z,16.29
2023-03-26T10:01:54.801Z,16.37
2023-03-26T10:04:40.561Z,16.07
2023-03-26T10:07:39.146Z,16.11
2023-03-26T10:10:23.995Z,16.30
2023-03-26T10:13:02.149Z,16.40
2023-03-26T10:15:44.836Z,16.25
2023-03-26T10:18:27.354Z,16.37
2023-03-26T10:21:02.858Z,16.41
2023-03-26T10:23:53.833Z,16.36
2023-03-26T10:27:08.957Z,16.44
2023-03-26T10:29:41.586Z,16.48
2023-03-26T10:32:51.406Z,16.26
2023-03-26T10:35:45.282Z,16.09
2023-03-26T10:38:36.736Z,16.30
2023-03-26T10:41:09.150Z,16.48
2023-03-26T10:44:19.782Z,16.54
2023-03-26T10:47:02.024Z,16.87
2023-03-26T10:49:51.088Z,16.97
2023-03-26T10:52:49.324Z,16.92
2023-03-26T10:55:28.769Z,17.07
2023-03-26T10:58:03.732Z,17.20
2023-03-26T11:00:31.370Z,17.07
2023-03-26T11:03:24.420Z,16.82
2023-03-26T11:06:15.517Z,16.67
2023-03-26T11:08:52.322Z,16.34
2023-03-26T11:11:29.768Z,16.38
2023-03-26T11:14:06.618Z,16.46
2023-03-26T11:16:53.360Z,16.63
2023-03-26T11:19:29.326Z,16.79
2023-03-26T11:22:16.173Z,16.44
2023-03-26T11:25:09.536Z,16.10
2023-03-26T11:27:55.029Z,16.92
2023-03-26T11:30:34.217Z,17.24
2023-03-26T11:33:06.006Z,17.49
2023-03-26T11:35:40.382Z,17.53
2023-03-26T11:38:46.849Z,17.76
2023-03-26T11:41:23.694Z,18.08
2023-03-26T11:44:21.924Z,18.07
2023-03-26T11:46:59.879Z,17.44
2023-03-26T11:49:29.532Z,17.36
2023-03-26T11:51:56.778Z,17.33
2023-03-26T11:54:23.845Z,17.51
2023-03-26T11:57:13.310Z,17.89
2023-03-26T11:59:57.160Z,18.06
2023-03-26T12:03:00.509Z,18.34
2023-03-26T12:05:36.669Z,17.78
2023-03-26T12:08:18.083Z,17.42
2023-03-26T12:10:58.645Z,17.41
2023-03-26T12:13:30.477Z,17.43
2023-03-26T12:16:01.412Z,17.50
2023-03-26T12:18:28.853Z,17.66
2023-03-26T12:21:04.540Z,17.73
2023-03-26T12:23:39.067Z,17.60
2023-03-26T12:26:20.804Z,17.40
2023-03-26T12:28:50.563Z,17.71
2023-03-26T12:31:19.502Z,17.60
2023-03-26T12:34:06.558Z,17.34
2023-03-26T12:36:49.779Z,17.27
2023-03-26T12:40:07.284Z,17.25
2023-03-26T12:44:47.105Z,17.58
2023-03-26T12:45:27.021Z,17.80
2023-03-26T12:48:02.989Z,18.00
2023-03-26T12:51:14.198Z,17.97
2023-03-26T12:53:53.400Z,17.70
2023-03-26T12:56:39.500Z,17.50
2023-03-26T12:59:37.144Z,17.49
2023-03-26T13:02:16.239Z,17.69
2023-03-26T13:05:20.024Z,17.85
2023-03-26T13:08:21.272Z,18.09
2023-03-26T13:11:09.061Z,18.12
2023-03-26T13:13:45.705Z,18.13
2023-03-26T13:16:37.614Z,18.17
2023-03-26T13:19:16.079Z,18.11
2023-03-26T13:21:46.956Z,18.08
2023-03-26T13:24:19.782Z,18.15
2023-03-26T13:27:12.979Z,18.27
2023-03-26T13:29:56.819Z,18.23
2023-03-26T13:32:47.066Z,17.98
2023-03-26T13:35:20.359Z,17.64
2023-03-26T13:38:06.176Z,17.48
2023-03-26T13:40:45.088Z,17.19
2023-03-26T13:43:18.137Z,17.40
2023-03-26T13:45:58.361Z,17.46
2023-03-26T13:48:56.496Z,17.56
2023-03-26T13:51:40.771Z,17.59
2023-03-26T13:54:26.778Z,17.57
2023-03-26T13:57:11.453Z,17.81
2023-03-26T13:59:50.447Z,17.83
2023-03-26T14:02:24.746Z,17.97
2023-03-26T14:04:58.817Z,18.03
2023-03-26T14:07:41.500Z,17.57
2023-03-26T14:10:24.012Z,18.07
2023-03-26T14:13:00.864Z,17.93
2023-03-26T14:15:56.061Z,17.76
2023-03-26T14:18:39.291Z,17.61
2023-03-26T14:21:24.911Z,17.59
2023-03-26T14:23:54.932Z,17.73
2023-03-26T14:26:43.853Z,17.73
2023-03-26T14:29:57.182Z,17.56
2023-03-26T14:33:05.961Z,17.39
2023-03-26T14:35:58.729Z,17.38
2023-03-26T14:38:47.422Z,17.41
2023-03-26T14:41:23.695Z,17.27
2023-03-26T14:44:12.011Z,17.37
2023-03-26T14:46:47.725Z,17.34
2023-03-26T14:49:20.261Z,17.33
2023-03-26T14:52:09.575Z,17.40
2023-03-26T14:54:42.593Z,17.07
2023-03-26T14:57:47.131Z,17.08
2023-03-26T15:00:40.836Z,17.02
2023-03-26T15:03:27.863Z,17.06
2023-03-26T15:06:03.746Z,17.08
2023-03-26T15:08:55.800Z,17.06
2023-03-26T15:11:22.970Z,17.02
2023-03-26T15:14:03.048Z,16.99
2023-03-26T15:16:56.236Z,16.97
2023-03-26T15:19:44.445Z,16.87
2023-03-26T15:22:30.530Z,16.88
2023-03-26T15:25:35.293Z,16.78
2023-03-26T15:28:17.741Z,16.68
2023-03-26T15:31:11.506Z,16.70
2023-03-26T15:34:06.442Z,16.58
2023-03-26T15:37:10.920Z,16.65
2023-03-26T15:39:59.188Z,16.54
2023-03-26T15:42:59.217Z,16.43
2023-03-26T15:45:38.531Z,16.46
2023-03-26T15:48:12.063Z,16.35
2023-03-26T15:50:54.829Z,16.35
2023-03-26T15:53:52.979Z,16.26
2023-03-26T15:56:31.246Z,16.06
2023-03-26T15:59:15.977Z,16.05
2023-03-26T16:02:04.919Z,15.95
2023-03-26T16:05:06.136Z,15.92
2023-03-26T16:08:03.005Z,15.81
2023-03-26T16:11:08.274Z,15.72
2023-03-26T16:13:42.845Z,15.59
2023-03-26T16:16:15.581Z,15.51
2023-03-26T16:18:56.696Z,15.27
2023-03-26T16:21:36.886Z,15.26
2023-03-26T16:24:03.740Z,15.18
2023-03-26T16:26:52.458Z,15.05
2023-03-26T16:29:22.428Z,14.85
2023-03-26T16:32:07.751Z,14.73
2023-03-26T16:35:03.561Z,14.64
2023-03-26T16:37:36.574Z,14.52
2023-03-26T16:40:22.640Z,14.31
2023-03-26T16:43:14.533Z,14.27
2023-03-26T16:46:05.855Z,14.11
2023-03-26T16:48:37.801Z,14.00
2023-03-26T16:51:38.660Z,13.93
2023-03-26T16:54:16.712Z,13.79
2023-03-26T16:56:53.871Z,13.47
2023-03-26T16:59:46.382Z,13.55
2023-03-26T17:03:00.145Z,13.41
2023-03-26T17:05:37.686Z,13.33
2023-03-26T17:08:36.556Z,13.27
2023-03-26T17:11:09.276Z,13.12
2023-03-26T17:14:03.839Z,13.04
2023-03-26T17:17:02.741Z,12.98
2023-03-26T17:19:48.121Z,12.99
2023-03-26T17:22:21.540Z,12.88
2023-03-26T17:25:04.937Z,12.78
2023-03-26T17:27:50.212Z,12.83
2023-03-26T17:30:47.430Z,12.82
2023-03-26T17:33:27.953Z,12.77
2023-03-26T17:36:13.466Z,12.71
2023-03-26T17:38:40.529Z,12.72
2023-03-26T17:41:15.437Z,12.66
2023-03-26T17:43:51.944Z,12.58
2023-03-26T17:46:37.616Z,12.57
2023-03-26T17:49:29.101Z,12.49
2023-03-26T17:52:18.196Z,12.41
2023-03-26T17:54:51.996Z,12.33
2023-03-26T17:57:33.883Z,12.29
2023-03-26T18:00:02.673Z,12.24
2023-03-26T18:02:47.724Z,12.09
2023-03-26T18:05:17.571Z,12.12
2023-03-26T18:07:59.513Z,12.07
2023-03-26T18:10:47.803Z,12.01
2023-03-26T18:13:24.033Z,12.00
2023-03-26T18:15:50.869Z,11.96
2023-03-26T18:18:20.016Z,11.87
2023-03-26T18:20:49.793Z,11.79
2023-03-26T18:23:39.405Z,11.84
2023-03-26T18:26:14.104Z,11.63
2023-03-26T18:28:45.157Z,11.60
2023-03-26T18:31:24.157Z,11.47
2023-03-26T18:33:57.104Z,11.39
2023-03-26T18:36:27.938Z,11.40
2023-03-26T18:39:04.242Z,11.33
2023-03-26T18:41:42.048Z,11.25
2023-03-26T18:44:18.306Z,11.16
2023-03-26T18:46:45.893Z,11.10
2023-03-26T18:49:15.525Z,11.07
2023-03-26T18:51:56.065Z,11.02
2023-03-26T18:54:23.794Z,11.07
2023-03-26T18:56:52.378Z,10.94
2023-03-26T18:59:27.973Z,11.01
2023-03-26T19:01:57.992Z,11.01
2023-03-26T19:04:26.905Z,11.07
2023-03-26T19:06:56.210Z,11.00
2023-03-26T19:09:31.712Z,10.91
2023-03-26T19:12:28.218Z,10.77
2023-03-26T19:15:08.135Z,10.82
2023-03-26T19:17:45.759Z,10.69
2023-03-26T19:20:18.858Z,10.77
2023-03-26T19:22:48.337Z,10.71
2023-03-26T19:25:28.203Z,10.69
2023-03-26T19:27:56.258Z,10.73
2023-03-26T19:30:33.122Z,10.68
2023-03-26T19:33:12.681Z,10.61
2023-03-26T19:35:42.312Z,10.80
2023-03-26T19:38:22.654Z,10.77
2023-03-26T19:40:52.452Z,10.78
2023-03-26T19:43:19.693Z,10.74
2023-03-26T19:45:59.338Z,10.82
2023-03-26T19:48:45.646Z,10.65
2023-03-26T19:51:31.575Z,10.74
2023-03-26T19:54:01.073Z,10.72
2023-03-26T19:56:28.852Z,10.66
2023-03-26T19:58:56.948Z,10.62
2023-03-26T20:01:26.936Z,10.65
2023-03-26T20:04:01.244Z,10.56
2023-03-26T20:06:43.380Z,10.56
2023-03-26T20:09:17.272Z,10.50
2023-03-26T20:11:44.170Z,10.45
2023-03-26T20:14:26.248Z,10.51
2023-03-26T20:16:53.857Z,10.37
2023-03-26T20:19:20.953Z,10.28
2023-03-26T20:21:48.005Z,10.25
2023-03-26T20:24:17.247Z,10.22
2023-03-26T20:26:45.814Z,10.11
2023-03-26T20:29:14.087Z,10.01
2023-03-26T20:31:42.068Z,10.02
2023-03-26T20:34:21.928Z,9.82
2023-03-26T20:36:55.331Z,9.69
2023-03-26T20:39:23.641Z,9.62
2023-03-26T20:41:51.487Z,9.54
2023-03-26T20:44:21.074Z,9.40
2023-03-26T20:46:49.871Z,9.42
2023-03-26T20:49:18.195Z,9.35
2023-03-26T20:51:47.018Z,9.28
2023-03-26T20:54:17.791Z,9.23
2023-03-26T20:56:45.725Z,9.16
2023-03-26T20:59:17.811Z,9.20
2023-03-26T21:01:47.523Z,9.18
2023-03-26T21:04:16.122Z,9.14
2023-03-26T21:06:43.836Z,9.02
2023-03-26T21:09:17.831Z,8.99
2023-03-26T21:12:01.961Z,8.90
2023-03-26T21:14:44.000Z,8.82
2023-03-26T21:17:18.187Z,8.67
2023-03-26T21:19:46.152Z,8.67
2023-03-26T21:22:31.649Z,8.62
2023-03-26T21:25:05.958Z,8.56
2023-03-26T21:27:39.493Z,8.61
2023-03-26T21:30:13.963Z,8.50
2023-03-26T21:32:42.720Z,8.45
2023-03-26T21:35:10.605Z,8.43
2023-03-26T21:38:06.635Z,8.47
2023-03-26T21:40:34.341Z,8.37
2023-03-26T21:43:01.981Z,8.42
2023-03-26T21:45:29.278Z,8.42
2023-03-26T21:47:56.869Z,8.37
2023-03-26T21:50:24.423Z,8.27
2023-03-26T21:52:51.890Z,8.28
2023-03-26T21:55:24.401Z,8.03
2023-03-26T21:58:22.144Z,8.25
2023-03-26T22:01:11.517Z,8.20
2023-03-26T22:04:20.341Z,8.15
2023-03-26T22:06:55.849Z,8.06
2023-03-26T22:09:33.900Z,7.95
2023-03-26T22:12:04.018Z,7.87
2023-03-26T22:14:30.946Z,7.87
2023-03-26T22:16:57.755Z,7.90
2023-03-26T22:19:24.960Z,7.88
2023-03-26T22:21:51.845Z,7.78
2023-03-26T22:24:18.753Z,7.68
2023-03-26T22:26:46.187Z,7.52
2023-03-26T22:29:15.008Z,7.49
2023-03-26T22:31:42.815Z,7.38
2023-03-26T22:34:10.021Z,7.32
2023-03-26T22:36:39.791Z,7.20
2023-03-26T22:39:07.446Z,7.17
2023-03-26T22:41:34.567Z,7.13
2023-03-26T22:44:12.875Z,7.07
2023-03-26T22:46:49.390Z,6.97
2023-03-26T22:49:16.981Z,6.93
2023-03-26T22:51:44.187Z,6.91
2023-03-26T22:54:11.355Z,6.86
2023-03-26T22:56:38.619Z,6.80
2023-03-26T22:59:05.459Z,6.67
2023-03-26T23:01:32.638Z,6.62
2023-03-26T23:03:59.549Z,6.64
2023-03-26T23:06:26.704Z,6.55
2023-03-26T23:08:54.424Z,6.68
2023-03-26T23:11:23.302Z,6.63
2023-03-26T23:13:51.324Z,6.66
2023-03-26T23:16:19.390Z,6.66
2023-03-26T23:18:46.651Z,6.67
2023-03-26T23:21:19.498Z,6.73
2023-03-26T23:23:48.066Z,6.68
2023-03-26T23:26:15.312Z,6.55
2023-03-26T23:28:43.365Z,6.60
2023-03-26T23:31:12.406Z,6.44
2023-03-26T23:33:46.205Z,6.28
2023-03-26T23:36:17.877Z,6.15
2023-03-26T23:38:49.610Z,6.09
2023-03-26T23:41:19.851Z,6.10
2023-03-26T23:43:54.304Z,5.93
2023-03-26T23:46:31.057Z,5.78
2023-03-26T23:49:00.104Z,5.68
2023-03-26T23:51:27.628Z,5.71
2023-03-26T23:53:54.742Z,5.67
2023-03-26T23:56:21.726Z,5.60
2023-03-26T23:58:49.102Z,5.45
